createdAt,value
2018-05-23T00:00:10.789Z,77.10
2018-05-23T00:02:43.411Z,77.00
2018-05-23T00:05:16.019Z,77.20
2018-05-23T00:07:48.617Z,77.10
2018-05-23T00:10:21.028Z,77.60
2018-05-23T00:12:54.361Z,77.20
2018-05-23T00:15:27.013Z,77.20
2018-05-23T00:18:00.383Z,77.30
2018-05-23T00:20:32.795Z,77.40
2018-05-23T00:23:05.245Z,77.50
2018-05-23T00:25:38.559Z,77.50
2018-05-23T00:28:11.876Z,77.80
2018-05-23T00:30:44.368Z,77.90
2018-05-23T00:33:17.807Z,78.00
2018-05-23T00:35:50.302Z,78.00
2018-05-23T00:38:23.718Z,78.00
2018-05-23T00:40:56.182Z,78.10
2018-05-23T00:43:28.702Z,78.30
2018-05-23T00:46:02.052Z,78.40
2018-05-23T00:48:36.107Z,78.50
2018-05-23T00:51:08.866Z,78.40
2018-05-23T00:53:41.340Z,78.50
2018-05-23T00:56:13.846Z,78.70
2018-05-23T00:58:47.979Z,79.00
2018-05-23T01:01:20.788Z,78.90
2018-05-23T01:03:54.020Z,79.30
2018-05-23T01:06:26.736Z,79.20
2018-05-23T01:08:59.181Z,79.50
2018-05-23T01:11:31.637Z,79.70
2018-05-23T01:14:04.924Z,79.80
2018-05-23T01:16:37.477Z,79.80
2018-05-23T01:19:10.991Z,79.90
2018-05-23T01:21:44.967Z,80.40
2018-05-23T01:24:17.799Z,80.40
2018-05-23T01:26:51.209Z,80.60
2018-05-23T01:29:23.739Z,81.00
2018-05-23T01:31:56.266Z,81.00
2018-05-23T01:34:28.714Z,80.70
2018-05-23T01:37:02.095Z,80.50
2018-05-23T01:39:34.570Z,80.60
2018-05-23T01:42:06.974Z,80.50
2018-05-23T01:44:40.219Z,80.80
2018-05-23T01:47:13.683Z,80.70
2018-05-23T01:49:46.340Z,80.70
2018-05-23T01:52:18.941Z,80.70
2018-05-23T01:54:51.417Z,80.70
2018-05-23T01:57:24.802Z,80.90
2018-05-23T01:59:57.253Z,80.90
2018-05-23T02:02:29.762Z,80.90
2018-05-23T02:05:02.233Z,80.90
2018-05-23T02:07:35.537Z,81.20
2018-05-23T02:10:08.387Z,81.20
2018-05-23T02:12:40.908Z,81.30
2018-05-23T02:15:13.440Z,81.30
2018-05-23T02:17:46.903Z,81.40
2018-05-23T02:20:20.189Z,81.60
2018-05-23T02:22:52.771Z,81.70
2018-05-23T02:25:25.297Z,81.80
2018-05-23T02:27:58.574Z,82.00
2018-05-23T02:30:31.389Z,82.00
2018-05-23T02:33:03.935Z,82.10
2018-05-23T02:35:37.003Z,82.10
2018-05-23T02:38:10.364Z,82.20
2018-05-23T02:40:44.321Z,82.20
2018-05-23T02:43:17.220Z,82.20
2018-05-23T02:45:49.703Z,82.10
2018-05-23T02:48:22.248Z,82.00
2018-05-23T02:50:55.640Z,82.00
2018-05-23T02:53:28.089Z,81.90
2018-05-23T02:56:01.492Z,81.90
2018-05-23T02:58:34.801Z,81.80
2018-05-23T03:01:07.451Z,81.80
2018-05-23T03:03:40.763Z,81.70
2018-05-23T03:06:13.332Z,81.60
2018-05-23T03:08:46.698Z,82.50
2018-05-23T03:11:20.053Z,81.60
2018-05-23T03:13:52.356Z,81.50
2018-05-23T03:16:25.170Z,81.40
2018-05-23T03:18:58.043Z,81.30
2018-05-23T03:21:30.556Z,81.30
2018-05-23T03:24:04.753Z,81.10
2018-05-23T03:26:37.520Z,81.10
2018-05-23T03:29:10.831Z,81.00
2018-05-23T03:31:44.975Z,80.80
2018-05-23T03:34:18.558Z,80.60
2018-05-23T03:36:51.259Z,80.60
2018-05-23T03:39:24.653Z,80.80
2018-05-23T03:41:57.983Z,80.90
2018-05-23T03:44:30.635Z,80.80
2018-05-23T03:47:03.922Z,80.90
2018-05-23T03:49:37.377Z,80.90
2018-05-23T03:52:10.051Z,80.90
2018-05-23T03:54:42.571Z,81.00
2018-05-23T03:57:16.601Z,81.20
2018-05-23T04:00:07.821Z,81.10
2018-05-23T04:06:07.447Z,81.10
2018-05-23T04:08:39.821Z,81.30
2018-05-23T04:11:12.543Z,81.30
2018-05-23T04:13:45.076Z,81.40
2018-05-23T04:16:17.637Z,81.50
2018-05-23T04:18:51.728Z,81.40
2018-05-23T04:21:25.406Z,81.40
2018-05-23T04:23:58.363Z,81.40
2018-05-23T04:26:31.697Z,81.30
2018-05-23T04:29:04.206Z,81.10
2018-05-23T04:31:37.561Z,81.10
2018-05-23T04:34:10.889Z,81.00
2018-05-23T04:36:44.167Z,80.60
2018-05-23T04:39:17.033Z,80.70
2018-05-23T04:41:50.270Z,80.70
2018-05-23T04:44:23.633Z,80.40
2018-05-23T04:46:56.244Z,80.00
2018-05-23T04:49:28.759Z,79.80
2018-05-23T04:52:02.201Z,79.70
2018-05-23T04:54:36.342Z,79.30
2018-05-23T04:57:10.021Z,79.30
2018-05-23T04:59:42.684Z,79.00
2018-05-23T05:02:15.342Z,78.80
2018-05-23T05:04:47.730Z,78.70
2018-05-23T05:07:21.515Z,78.60
2018-05-23T05:09:54.531Z,78.60
2018-05-23T05:12:26.936Z,78.50
2018-05-23T05:14:59.943Z,78.50
2018-05-23T05:17:32.929Z,78.20
2018-05-23T05:20:05.371Z,78.10
2018-05-23T05:22:38.003Z,77.60
2018-05-23T05:25:10.445Z,77.20
2018-05-23T05:27:43.887Z,77.00
2018-05-23T05:30:17.123Z,77.10
2018-05-23T05:32:49.948Z,77.30
2018-05-23T05:35:23.443Z,77.00
2018-05-23T05:37:56.109Z,77.00
2018-05-23T05:40:28.608Z,77.10
2018-05-23T05:43:01.130Z,77.00
2018-05-23T05:45:33.710Z,77.00
2018-05-23T05:48:07.081Z,77.00
2018-05-23T05:50:40.313Z,77.00
2018-05-23T05:53:13.044Z,77.00
2018-05-23T05:55:47.168Z,76.80
2018-05-23T05:58:20.620Z,76.40
2018-05-23T06:00:53.384Z,76.30
2018-05-23T06:03:25.883Z,75.90
2018-05-23T06:05:59.191Z,75.10
2018-05-23T06:08:32.467Z,75.30
2018-05-23T06:11:06.564Z,74.30
2018-05-23T06:13:39.199Z,74.30
2018-05-23T06:16:11.661Z,74.00
2018-05-23T06:18:45.155Z,73.30
2018-05-23T06:21:17.706Z,72.60
2018-05-23T06:23:50.245Z,72.00
2018-05-23T06:26:22.662Z,72.20
2018-05-23T06:28:55.150Z,71.30
2018-05-23T06:31:27.653Z,70.80
2018-05-23T06:34:00.120Z,70.20
2018-05-23T06:36:32.781Z,69.20
2018-05-23T06:39:05.539Z,69.20
2018-05-23T06:41:38.083Z,68.20
2018-05-23T06:44:11.334Z,67.80
2018-05-23T06:46:43.993Z,67.80
2018-05-23T06:49:18.092Z,66.30
2018-05-23T06:51:50.857Z,66.20
2018-05-23T06:54:23.306Z,66.20
2018-05-23T06:56:56.533Z,63.50
2018-05-23T06:59:29.201Z,63.40
2018-05-23T07:02:01.587Z,64.30
2018-05-23T07:04:34.072Z,63.10
2018-05-23T07:07:09.557Z,62.10
2018-05-23T07:09:44.260Z,60.90
2018-05-23T07:12:17.989Z,58.80
2018-05-23T07:14:50.816Z,58.80
2018-05-23T07:17:23.248Z,58.10
2018-05-23T07:19:55.682Z,56.70
2018-05-23T07:22:28.270Z,55.50
2018-05-23T07:25:01.653Z,54.40
2018-05-23T07:27:35.775Z,55.60
2018-05-23T07:30:08.571Z,55.50
2018-05-23T07:32:41.036Z,56.00
2018-05-23T07:35:14.564Z,55.60
2018-05-23T07:37:48.604Z,56.60
2018-05-23T07:40:21.553Z,56.60
2018-05-23T07:42:54.906Z,56.50
2018-05-23T07:45:27.566Z,57.20
2018-05-23T07:48:00.239Z,56.30
2018-05-23T07:50:33.391Z,55.50
2018-05-23T07:53:06.115Z,55.50
2018-05-23T07:55:38.619Z,55.80
2018-05-23T07:58:12.729Z,55.00
2018-05-23T08:00:45.456Z,55.00
2018-05-23T08:03:17.879Z,53.50
2018-05-23T08:05:51.172Z,51.60
2018-05-23T08:08:23.799Z,51.60
2018-05-23T08:10:57.146Z,50.80
2018-05-23T08:13:29.666Z,50.20
2018-05-23T08:16:02.814Z,49.80
2018-05-23T08:18:35.576Z,49.70
2018-05-23T08:21:08.170Z,48.00
2018-05-23T08:23:42.190Z,49.80
2018-05-23T08:26:15.019Z,49.80
2018-05-23T08:28:48.272Z,48.50
2018-05-23T08:31:21.399Z,49.00
2018-05-23T08:33:54.802Z,47.90
2018-05-23T08:36:27.672Z,47.90
2018-05-23T08:39:00.107Z,47.90
2018-05-23T08:41:33.590Z,47.40
2018-05-23T08:44:06.034Z,47.40
2018-05-23T08:46:38.472Z,46.70
2018-05-23T08:49:12.564Z,46.60
2018-05-23T08:51:45.108Z,46.50
2018-05-23T08:54:17.572Z,47.40
2018-05-23T08:56:51.118Z,46.60
2018-05-23T08:59:25.185Z,44.90
2018-05-23T09:01:58.932Z,43.80
2018-05-23T09:04:32.141Z,43.80
2018-05-23T09:07:05.424Z,45.30
2018-05-23T09:09:37.909Z,45.20
2018-05-23T09:12:11.396Z,46.20
2018-05-23T09:14:43.835Z,45.90
2018-05-23T09:17:17.108Z,43.00
2018-05-23T09:19:49.579Z,45.00
2018-05-23T09:22:22.046Z,44.00
2018-05-23T09:24:54.504Z,45.00
2018-05-23T09:27:27.900Z,46.70
2018-05-23T09:30:00.303Z,47.20
2018-05-23T09:32:33.497Z,47.60
2018-05-23T09:35:06.241Z,48.00
2018-05-23T09:37:39.737Z,45.80
2018-05-23T09:40:12.905Z,46.70
2018-05-23T09:42:45.600Z,46.70
2018-05-23T09:45:18.015Z,44.40
2018-05-23T09:47:50.499Z,44.80
2018-05-23T09:50:23.106Z,45.60
2018-05-23T09:52:55.795Z,47.80
2018-05-23T09:55:28.295Z,48.30
2018-05-23T09:58:00.857Z,49.60
2018-05-23T10:00:33.243Z,46.40
2018-05-23T10:03:07.659Z,47.90
2018-05-23T10:05:40.243Z,48.30
2018-05-23T10:08:12.785Z,48.00
2018-05-23T10:10:45.449Z,49.30
2018-05-23T10:13:17.875Z,45.50
2018-05-23T10:15:50.961Z,45.10
2018-05-23T10:18:23.938Z,45.70
2018-05-23T10:20:56.542Z,45.10
2018-05-23T10:23:29.864Z,45.40
2018-05-23T10:26:02.336Z,47.60
2018-05-23T10:28:34.933Z,49.10
2018-05-23T10:31:08.466Z,47.90
2018-05-23T10:33:42.533Z,43.30
2018-05-23T10:36:15.281Z,43.30
2018-05-23T10:38:48.657Z,44.10
2018-05-23T10:41:22.070Z,42.30
2018-05-23T10:43:54.733Z,42.30
2018-05-23T10:46:27.296Z,42.50
2018-05-23T10:49:01.429Z,45.90
2018-05-23T10:51:34.987Z,44.50
2018-05-23T10:54:07.556Z,44.40
2018-05-23T10:56:40.031Z,44.20
2018-05-23T10:59:13.453Z,45.80
2018-05-23T11:01:46.666Z,44.50
2018-05-23T11:04:20.041Z,45.70
2018-05-23T11:06:52.570Z,45.50
2018-05-23T11:09:25.114Z,46.50
2018-05-23T11:11:58.409Z,46.70
2018-05-23T11:14:31.092Z,46.60
2018-05-23T11:17:03.562Z,46.90
2018-05-23T11:19:36.125Z,47.20
2018-05-23T11:22:09.505Z,47.70
2018-05-23T11:24:42.786Z,47.20
2018-05-23T11:27:15.652Z,47.20
2018-05-23T11:29:48.978Z,48.30
2018-05-23T11:32:22.223Z,49.20
2018-05-23T11:34:55.770Z,48.70
2018-05-23T11:37:29.201Z,50.00
2018-05-23T11:40:09.541Z,51.40
2018-05-23T11:42:41.987Z,52.70
2018-05-23T11:45:15.437Z,52.60
2018-05-23T11:47:48.753Z,54.00
2018-05-23T11:50:21.324Z,52.00
2018-05-23T11:52:54.503Z,52.90
2018-05-23T11:55:28.164Z,52.50
2018-05-23T11:58:00.729Z,52.40
2018-05-23T12:00:33.915Z,53.50
2018-05-23T12:03:06.495Z,53.40
2018-05-23T12:05:39.623Z,54.10
2018-05-23T12:08:12.319Z,54.10
2018-05-23T12:10:45.638Z,54.20
2018-05-23T12:13:18.125Z,53.10
2018-05-23T12:15:51.513Z,53.90
2018-05-23T12:18:24.883Z,53.50
2018-05-23T12:20:57.420Z,53.20
2018-05-23T12:23:31.496Z,54.10
2018-05-23T12:26:04.373Z,54.10
2018-05-23T12:28:37.715Z,53.90
2018-05-23T12:31:12.034Z,53.60
2018-05-23T12:33:45.380Z,53.80
2018-05-23T12:36:18.516Z,53.80
2018-05-23T12:38:52.545Z,53.80
2018-05-23T12:41:25.368Z,53.80
2018-05-23T12:43:58.620Z,52.00
2018-05-23T12:46:32.825Z,52.70
2018-05-23T12:49:05.564Z,52.70
2018-05-23T12:51:39.011Z,52.70
2018-05-23T12:54:12.564Z,52.50
2018-05-23T12:56:45.678Z,52.50
2018-05-23T12:59:19.119Z,53.60
2018-05-23T13:01:53.199Z,53.30
2018-05-23T13:04:25.900Z,53.20
2018-05-23T13:06:59.434Z,53.20
2018-05-23T13:09:33.556Z,52.30
2018-05-23T13:12:06.067Z,52.30
2018-05-23T13:14:39.567Z,51.60
2018-05-23T13:17:12.776Z,51.10
2018-05-23T13:19:45.533Z,51.60
2018-05-23T13:22:17.980Z,51.50
2018-05-23T13:24:52.501Z,49.90
2018-05-23T13:27:25.807Z,50.90
2018-05-23T13:29:58.634Z,49.80
2018-05-23T13:32:32.007Z,50.20
2018-05-23T13:35:05.099Z,50.20
2018-05-23T13:37:37.820Z,51.00
2018-05-23T13:40:10.992Z,49.00
2018-05-23T13:42:44.293Z,49.80
2018-05-23T13:45:17.624Z,51.40
2018-05-23T13:47:50.149Z,51.30
2018-05-23T13:50:23.599Z,51.20
2018-05-23T13:52:57.382Z,51.70
2018-05-23T13:55:30.298Z,51.70
2018-05-23T13:58:03.323Z,50.90
2018-05-23T14:00:35.791Z,51.40
2018-05-23T14:03:09.665Z,52.00
2018-05-23T14:05:42.962Z,50.50
2018-05-23T14:08:15.458Z,50.50
2018-05-23T14:10:47.965Z,50.30
2018-05-23T14:13:21.375Z,50.90
2018-05-23T14:15:54.864Z,51.00
2018-05-23T14:18:28.926Z,51.20
2018-05-23T14:21:01.620Z,51.30
2018-05-23T14:23:34.933Z,50.60
2018-05-23T14:26:07.394Z,51.50
2018-05-23T14:28:40.760Z,51.30
2018-05-23T14:31:14.938Z,51.90
2018-05-23T14:33:47.610Z,51.80
2018-05-23T14:36:20.201Z,53.20
2018-05-23T14:38:52.767Z,53.40
2018-05-23T14:41:25.297Z,51.80
2018-05-23T14:43:58.546Z,52.70
2018-05-23T14:46:32.037Z,53.40
2018-05-23T14:49:05.557Z,53.40
2018-05-23T14:51:38.841Z,52.20
2018-05-23T14:54:12.300Z,52.90
2018-05-23T14:56:44.981Z,52.90
2018-05-23T14:59:18.285Z,52.10
2018-05-23T15:01:50.913Z,52.10
2018-05-23T15:04:23.667Z,53.30
2018-05-23T15:06:56.181Z,53.70
2018-05-23T15:09:28.650Z,54.30
2018-05-23T15:12:01.204Z,54.20
2018-05-23T15:14:35.277Z,53.80
2018-05-23T15:17:08.064Z,53.80
2018-05-23T15:19:41.438Z,53.30
2018-05-23T15:22:16.625Z,53.00
2018-05-23T15:24:50.189Z,52.90
2018-05-23T15:27:22.812Z,53.20
2018-05-23T15:29:55.331Z,53.60
2018-05-23T15:32:28.595Z,54.00
2018-05-23T15:35:01.248Z,54.00
2018-05-23T15:37:34.649Z,54.60
2018-05-23T15:40:07.231Z,54.70
2018-05-23T15:42:40.667Z,54.50
2018-05-23T15:45:14.065Z,53.70
2018-05-23T15:47:47.428Z,53.90
2018-05-23T15:50:20.187Z,53.90
2018-05-23T15:52:53.562Z,54.00
2018-05-23T15:55:25.977Z,53.70
2018-05-23T15:57:58.631Z,53.70
2018-05-23T16:00:31.999Z,54.20
2018-05-23T16:03:05.561Z,55.50
2018-05-23T16:05:37.926Z,56.30
2018-05-23T16:08:10.591Z,56.10
2018-05-23T16:10:43.891Z,55.80
2018-05-23T16:13:16.535Z,55.90
2018-05-23T16:15:49.893Z,56.50
2018-05-23T16:18:23.255Z,56.80
2018-05-23T16:20:56.102Z,56.30
2018-05-23T16:23:29.316Z,56.20
2018-05-23T16:26:02.614Z,56.70
2018-05-23T16:28:35.843Z,56.70
2018-05-23T16:31:08.458Z,56.70
2018-05-23T16:33:41.678Z,58.70
2018-05-23T16:36:14.226Z,58.70
2018-05-23T16:38:47.721Z,59.30
2018-05-23T16:41:20.227Z,58.80
2018-05-23T16:43:53.642Z,57.70
2018-05-23T16:46:26.055Z,57.80
2018-05-23T16:48:59.443Z,57.00
2018-05-23T16:51:33.526Z,57.70
2018-05-23T16:54:06.196Z,57.70
2018-05-23T16:56:38.903Z,58.90
2018-05-23T16:59:12.465Z,60.00
2018-05-23T17:01:45.711Z,59.30
2018-05-23T17:04:19.099Z,60.90
2018-05-23T17:06:52.407Z,60.90
2018-05-23T17:09:25.877Z,61.80
2018-05-23T17:11:59.692Z,62.00
2018-05-23T17:14:32.143Z,62.00
2018-05-23T17:17:04.529Z,62.80
2018-05-23T17:19:37.876Z,63.40
2018-05-23T17:22:10.429Z,63.30
2018-05-23T17:24:42.936Z,63.30
2018-05-23T17:27:16.288Z,63.50
2018-05-23T17:29:49.040Z,63.50
2018-05-23T17:32:22.459Z,63.90
2018-05-23T17:34:55.267Z,63.90
2018-05-23T17:37:28.590Z,64.80
2018-05-23T17:40:01.047Z,64.10
2018-05-23T17:42:34.333Z,63.30
2018-05-23T17:45:06.960Z,63.00
2018-05-23T17:47:40.254Z,62.90
2018-05-23T17:50:13.640Z,63.70
2018-05-23T17:52:46.306Z,63.70
2018-05-23T17:55:18.796Z,63.90
2018-05-23T17:57:51.302Z,63.90
2018-05-23T18:00:23.777Z,63.50
2018-05-23T18:02:56.336Z,64.00
2018-05-23T18:05:29.592Z,64.10
2018-05-23T18:08:02.981Z,64.90
2018-05-23T18:10:36.286Z,64.80
2018-05-23T18:13:08.772Z,64.80
2018-05-23T18:15:41.245Z,66.20
2018-05-23T18:18:13.862Z,67.40
2018-05-23T18:20:47.827Z,68.20
2018-05-23T18:23:20.694Z,68.20
2018-05-23T18:25:53.970Z,67.70
2018-05-23T18:28:26.432Z,67.80
2018-05-23T18:30:59.733Z,67.80
2018-05-23T18:33:32.215Z,70.40
2018-05-23T18:36:04.874Z,71.20
2018-05-23T18:38:37.368Z,72.20
2018-05-23T18:41:09.885Z,75.40
2018-05-23T18:43:42.484Z,75.50
2018-05-23T18:46:14.933Z,78.50
2018-05-23T18:48:48.386Z,79.80
2018-05-23T18:51:20.774Z,80.90
2018-05-23T18:53:54.933Z,82.70
2018-05-23T18:56:28.035Z,82.70
2018-05-23T18:59:01.810Z,83.60
2018-05-23T19:01:34.592Z,83.60
2018-05-23T19:04:07.151Z,83.90
2018-05-23T19:06:40.485Z,84.30
2018-05-23T19:09:13.785Z,85.00
2018-05-23T19:11:51.117Z,85.00
2018-05-23T19:14:23.898Z,85.50
2018-05-23T19:16:57.794Z,85.20
2018-05-23T19:19:31.492Z,85.50
2018-05-23T19:22:05.506Z,85.00
2018-05-23T19:24:39.389Z,85.00
2018-05-23T19:27:12.517Z,84.70
2018-05-23T19:29:46.717Z,84.80
2018-05-23T19:32:20.080Z,84.70
2018-05-23T19:34:53.163Z,85.10
2018-05-23T19:37:27.233Z,85.20
2018-05-23T19:40:01.353Z,85.30
2018-05-23T19:42:35.711Z,85.40
2018-05-23T19:45:10.744Z,85.80
2018-05-23T19:47:45.178Z,85.90
2018-05-23T19:50:19.657Z,85.90
2018-05-23T19:52:53.096Z,86.60
2018-05-23T19:55:26.593Z,85.80
2018-05-23T19:58:02.022Z,85.70
2018-05-23T20:00:36.570Z,85.60
2018-05-23T20:03:11.230Z,85.60
2018-05-23T20:05:44.851Z,85.60
2018-05-23T20:08:20.979Z,85.70
2018-05-23T20:10:55.920Z,85.90
2018-05-23T20:13:30.014Z,86.20
2018-05-23T20:16:03.902Z,86.50
2018-05-23T20:18:37.337Z,86.80
2018-05-23T20:21:10.847Z,87.00
2018-05-23T20:23:43.888Z,87.20
2018-05-23T20:26:18.863Z,87.20
2018-05-23T20:28:52.093Z,87.30
2018-05-23T20:31:24.898Z,87.40
2018-05-23T20:33:59.093Z,87.30
2018-05-23T20:36:31.712Z,87.40
2018-05-23T20:39:04.858Z,87.80
2018-05-23T20:41:37.256Z,88.00
2018-05-23T20:44:10.638Z,88.20
2018-05-23T20:46:43.956Z,88.20
2018-05-23T20:49:17.271Z,88.20
2018-05-23T20:51:50.634Z,88.30
2018-05-23T20:54:24.005Z,88.40
2018-05-23T20:56:56.704Z,88.50
2018-05-23T20:59:30.213Z,88.70
2018-05-23T21:02:03.550Z,88.70
2018-05-23T21:04:36.784Z,88.80
2018-05-23T21:07:10.658Z,88.90
2018-05-23T21:09:43.282Z,88.80
2018-05-23T21:12:17.334Z,88.90
2018-05-23T21:14:49.837Z,89.00
2018-05-23T21:17:23.846Z,89.00
2018-05-23T21:19:57.140Z,89.20
2018-05-23T21:22:30.769Z,89.30
2018-05-23T21:25:04.220Z,89.20
2018-05-23T21:27:37.566Z,89.40
2018-05-23T21:30:10.928Z,89.40
2018-05-23T21:32:44.319Z,89.30
2018-05-23T21:35:16.862Z,89.40
2018-05-23T21:37:49.406Z,89.50
2018-05-23T21:40:22.776Z,89.50
2018-05-23T21:42:56.009Z,89.50
2018-05-23T21:45:28.510Z,89.60
2018-05-23T21:48:00.997Z,89.70
2018-05-23T21:50:34.460Z,89.70
2018-05-23T21:53:08.272Z,89.70
2018-05-23T21:55:41.882Z,89.80
2018-05-23T21:58:15.535Z,89.80
2018-05-23T22:00:48.187Z,89.80
2018-05-23T22:03:20.770Z,89.80
2018-05-23T22:05:53.255Z,89.80
2018-05-23T22:08:25.662Z,89.90
2018-05-23T22:10:59.026Z,89.90
2018-05-23T22:13:32.690Z,90.10
2018-05-23T22:16:05.733Z,89.90
2018-05-23T22:18:38.445Z,89.80
2018-05-23T22:21:11.780Z,89.80
2018-05-23T22:23:44.809Z,89.70
2018-05-23T22:26:18.068Z,90.20
2018-05-23T22:28:52.085Z,89.50
2018-05-23T22:31:24.929Z,89.50
2018-05-23T22:33:57.516Z,89.50
2018-05-23T22:36:31.751Z,89.40
2018-05-23T22:39:04.659Z,89.40
2018-05-23T22:41:38.045Z,89.40
2018-05-23T22:44:10.595Z,89.50
2018-05-23T22:46:43.239Z,89.50
2018-05-23T22:49:17.359Z,89.50
2018-05-23T22:51:50.010Z,89.50
2018-05-23T22:54:24.048Z,89.50
2018-05-23T22:56:56.635Z,89.50
2018-05-23T22:59:29.021Z,89.40
2018-05-23T23:02:01.512Z,89.50
2018-05-23T23:04:34.109Z,89.50
2018-05-23T23:07:07.237Z,89.40
2018-05-23T23:09:39.862Z,89.40
2018-05-23T23:12:12.499Z,89.30
2018-05-23T23:14:45.725Z,89.20
2018-05-23T23:17:18.185Z,89.20
2018-05-23T23:19:50.971Z,89.20
2018-05-23T23:22:37.901Z,89.20
2018-05-23T23:25:11.290Z,89.20
2018-05-23T23:27:44.437Z,89.20
2018-05-23T23:30:17.492Z,89.20
2018-05-23T23:32:51.547Z,89.10
2018-05-23T23:35:24.462Z,89.00
2018-05-23T23:37:56.872Z,89.10
2018-05-23T23:40:29.350Z,89.10
2018-05-23T23:43:02.724Z,89.00
2018-05-23T23:45:35.189Z,88.90
2018-05-23T23:48:08.542Z,89.00
2018-05-23T23:50:41.312Z,89.00
2018-05-23T23:53:14.658Z,89.00
2018-05-23T23:55:47.192Z,89.00
2018-05-23T23:58:21.199Z,89.20
